Rochester, MN

11:32 PM CST on December 24, 2014 (GMT -0600)
Honeckland, Elton Hills | Change Station
CLOSE
Current Station
Personal Weather Station
Location: Rochester, MN
Elevation: 1037 ft
Nearby Weather Stations

Elev 1037 ft 44.05 °N, 92.48 °W | Updated 12 minutes ago

Overcast
Overcast
30.4 °F
Feels Like 25 °F
N
5.3
Wind Variable Wind from SW

Today
High -- | Low -- °F
--% Chance of Precip.
Yesterday
High -- | Low -- °F
Precip. -- in
7:43 AM 4:36 PM
Waxing Crescent, 13% visible
Pressure 29.62 in
Visibility 10.0 miles
Clouds Overcast 700 ft
Windchill 25 °F
Dew Point 30 °F
Humidity 99%
Rainfall 0.09 in
Snow Depth Not available.
UV 0 out of 12
Pollen .10 out of 12
Air Quality Not available.
Flu Activity Not available.
METAR K9MN 250513Z AUTO 26006KT 10SM OVC007 00/M02 A2962 RMK AO1 T10031016

More Conditions Fewer Conditions

Pressure 29.62 in
Visibility 10.0 miles
Clouds Overcast 700 ft
Windchill 25 °F
Dew Point 30 °F
Humidity 99%
Rainfall 0.09 in
Snow Depth Not available.
UV 0 out of 12
Pollen .10 out of 12
Air Quality Not available.
Flu Activity Not available.
METAR K9MN 250513Z AUTO 26006KT 10SM OVC007 00/M02 A2962 RMK AO1 T10031016

More Conditions Fewer Conditions

10-Day Weather Forecast

Almanac

Astronomy

Dec. 24, 2014 Rise Set
Actual Time
Civil Twilight
Nautical Twilight
Astronomical Twilight
Moon
Length of Visible Light
Length of Day
Tomorrow will be .
, % of the Moon is Illuminated

Today's Extremes

State Highs State Lows

Community

WunderPhotos

Upload Photos

1,780,244 photos uploaded!

WunderBlogs® & News

Nearby

Air Quality

  Air Quality AQ Index Pollutant
Not available.

Snow Depth

Station Depth Elevation

Earthquake Activity

City Distance Mag. Time & Date
Minimum magnitude displayed is 2.5.

Coastal Water Temperatures

Place Temperature

Nearby Weather Stations